Time;durP1;ratioP1;P1;durP2;ratioP2;P2;SDS_P1;SDS_P2;PMS_P1;PMS_P2;Temp;Humidity;BMP_temperature;BMP_pressure;BME280_temperature;BME280_humidity;BME280_pressure;Samples;Min_cycle;Max_cycle;Signal;HPM_P1;HPM_P2
2023/10/07 00:01:27;;;;;;;11.75;7.22;;;19.70;57.00;;;;;;5055766;28;20203;-80
2023/10/07 00:03:58;;;;;;;13.07;7.28;;;19.70;56.90;;;;;;5054799;28;20207;-80
2023/10/07 00:06:27;;;;;;;10.88;7.28;;;19.70;56.90;;;;;;5054866;28;20215;-80
2023/10/07 00:08:54;;;;;;;11.32;7.03;;;19.70;57.10;;;;;;5055578;28;20199;-80
2023/10/07 00:11:22;;;;;;;11.07;6.88;;;19.70;56.80;;;;;;5054917;28;20646;-80
2023/10/07 00:13:54;;;;;;;12.02;7.07;;;19.70;56.70;;;;;;5037983;28;20196;-80
2023/10/07 00:16:23;;;;;;;10.05;6.78;;;19.70;56.80;;;;;;5054241;28;20642;-80
2023/10/07 00:18:51;;;;;;;11.23;6.88;;;19.60;56.70;;;;;;5054406;28;20219;-80
2023/10/07 00:21:26;;;;;;;11.18;7.10;;;19.60;56.70;;;;;;5054512;28;20207;-80
2023/10/07 00:23:53;;;;;;;10.10;6.88;;;19.60;56.90;;;;;;5054396;28;20298;-80
2023/10/07 00:26:20;;;;;;;11.10;7.32;;;19.60;57.00;;;;;;5054295;28;20217;-79
2023/10/07 00:29:00;;;;;;;9.65;6.25;;;19.60;56.70;;;;;;5054499;28;20206;-80
2023/10/07 00:31:28;;;;;;;10.15;6.18;;;19.60;57.00;;;;;;5054445;28;20201;-80
2023/10/07 00:34:12;;;;;;;10.50;6.55;;;19.60;57.00;;;;;;5054452;28;20281;-80
2023/10/07 00:36:47;;;;;;;9.25;6.28;;;19.60;56.90;;;;;;5055302;28;20226;-80
2023/10/07 00:39:20;;;;;;;10.52;6.93;;;19.50;56.70;;;;;;5054603;28;20602;-80
2023/10/07 00:41:50;;;;;;;9.00;6.95;;;19.50;56.80;;;;;;5054921;28;20203;-80
2023/10/07 00:44:21;;;;;;;11.07;6.82;;;19.50;56.90;;;;;;5038131;28;20218;-80
2023/10/07 00:46:55;;;;;;;8.40;6.13;;;19.50;56.80;;;;;;5054077;28;20199;-80
2023/10/07 00:49:27;;;;;;;10.02;6.47;;;19.50;56.80;;;;;;5054532;28;20223;-80
2023/10/07 00:51:55;;;;;;;9.93;6.22;;;19.40;56.60;;;;;;5053964;28;20207;-80
2023/10/07 00:54:30;;;;;;;9.55;6.25;;;19.50;56.40;;;;;;5054084;28;20196;-80
2023/10/07 00:57:23;;;;;;;9.35;6.32;;;19.50;56.90;;;;;;5053954;28;20199;-80
2023/10/07 00:59:51;;;;;;;9.15;6.20;;;19.50;56.60;;;;;;5041348;28;20230;-80
2023/10/07 01:02:28;;;;;;;11.68;6.03;;;19.40;56.90;;;;;;5037899;28;20227;-80
2023/10/07 01:05:05;;;;;;;8.95;6.05;;;19.40;56.80;;;;;;5054221;28;20628;-80
2023/10/07 01:07:34;;;;;;;8.30;6.28;;;19.40;56.50;;;;;;5054439;28;20191;-80
2023/10/07 01:10:12;;;;;;;7.60;5.50;;;19.40;56.50;;;;;;5054368;28;20250;-80
2023/10/07 01:12:42;;;;;;;8.38;5.88;;;19.40;56.80;;;;;;5054194;28;20298;-80
2023/10/07 01:15:18;;;;;;;9.60;6.28;;;19.40;56.60;;;;;;5054307;28;20203;-80
2023/10/07 01:17:46;;;;;;;9.07;6.07;;;19.40;56.80;;;;;;5054955;28;20210;-80
2023/10/07 01:20:15;;;;;;;9.88;6.25;;;19.30;56.30;;;;;;5054091;28;20694;-80
2023/10/07 01:23:02;;;;;;;8.38;5.88;;;19.40;56.70;;;;;;5037798;28;20230;-80
2023/10/07 01:25:31;;;;;;;7.65;5.40;;;19.30;56.60;;;;;;5053793;28;20245;-80
2023/10/07 01:28:01;;;;;;;9.48;5.70;;;19.30;56.40;;;;;;5053778;28;20192;-80
2023/10/07 01:30:29;;;;;;;8.75;6.10;;;19.30;56.70;;;;;;5053785;28;20226;-80
2023/10/07 01:33:02;;;;;;;9.27;6.10;;;19.20;56.50;;;;;;5053523;28;20620;-80
2023/10/07 01:35:37;;;;;;;7.80;5.80;;;19.30;56.70;;;;;;5053550;28;20196;-80
2023/10/07 01:38:09;;;;;;;8.77;6.10;;;19.30;56.60;;;;;;5053380;28;20203;-80
2023/10/07 01:40:55;;;;;;;8.75;6.07;;;19.30;56.40;;;;;;5053640;28;20591;-80
2023/10/07 01:43:24;;;;;;;7.95;5.78;;;19.20;56.40;;;;;;5053151;28;20265;-79
2023/10/07 01:45:52;;;;;;;8.02;5.43;;;19.30;56.50;;;;;;5052849;28;20716;-79
2023/10/07 01:48:20;;;;;;;7.93;5.50;;;19.20;56.30;;;;;;5053077;28;20223;-79
2023/10/07 01:50:49;;;;;;;9.35;5.57;;;19.20;56.70;;;;;;5053008;28;20360;-79
2023/10/07 01:53:17;;;;;;;8.07;5.55;;;19.20;56.60;;;;;;5052947;28;20203;-79
2023/10/07 01:55:47;;;;;;;7.95;5.40;;;19.20;56.50;;;;;;5054203;28;20199;-79
2023/10/07 01:58:14;;;;;;;7.80;5.82;;;19.20;56.80;;;;;;5053091;28;20700;-79
2023/10/07 02:00:45;;;;;;;8.55;5.88;;;19.20;56.30;;;;;;5053267;28;20269;-79
2023/10/07 02:03:16;;;;;;;7.95;5.38;;;19.20;56.40;;;;;;5053268;28;20188;-79
2023/10/07 02:05:47;;;;;;;8.00;5.95;;;19.10;56.40;;;;;;5052841;28;20196;-79
2023/10/07 02:08:18;;;;;;;8.38;5.40;;;19.20;56.60;;;;;;5053146;28;20214;-79
2023/10/07 02:10:46;;;;;;;7.53;5.50;;;19.20;56.20;;;;;;5053190;28;20222;-79
2023/10/07 02:13:16;;;;;;;9.23;5.47;;;19.10;56.10;;;;;;5053124;28;20198;-79
2023/10/07 02:15:43;;;;;;;8.10;5.47;;;19.10;56.40;;;;;;5053085;28;20203;-79
2023/10/07 02:18:15;;;;;;;7.35;5.25;;;19.10;56.50;;;;;;5053536;28;20229;-79
2023/10/07 02:20:49;;;;;;;7.32;4.88;;;19.10;56.30;;;;;;5053097;28;20546;-79
2023/10/07 02:23:22;;;;;;;7.80;5.45;;;19.10;56.70;;;;;;5053850;28;20196;-79
2023/10/07 02:25:50;;;;;;;7.80;5.20;;;19.10;56.30;;;;;;5053132;28;20213;-79
2023/10/07 02:28:21;;;;;;;8.43;5.25;;;19.10;56.40;;;;;;5054699;28;20192;-79
2023/10/07 02:31:00;;;;;;;8.35;5.32;;;19.10;56.30;;;;;;5041105;28;20215;-79
2023/10/07 02:33:28;;;;;;;9.55;5.28;;;19.10;56.00;;;;;;5056654;28;20207;-79
2023/10/07 02:35:56;;;;;;;6.97;5.05;;;19.10;56.10;;;;;;5041174;28;20292;-79
2023/10/07 02:38:28;;;;;;;7.65;4.90;;;19.10;56.10;;;;;;5056085;28;20229;-79
2023/10/07 02:41:06;;;;;;;6.68;5.13;;;19.00;55.90;;;;;;5056329;28;20251;-79
2023/10/07 02:43:35;;;;;;;7.65;5.45;;;19.00;56.40;;;;;;5056401;28;20219;-79
2023/10/07 02:46:05;;;;;;;6.88;5.20;;;19.00;56.10;;;;;;5056400;28;20215;-80
2023/10/07 02:48:38;;;;;;;8.27;5.70;;;19.00;56.40;;;;;;5056360;28;20227;-80
2023/10/07 02:51:10;;;;;;;6.55;4.63;;;19.00;56.50;;;;;;5040682;28;20230;-80
2023/10/07 02:53:37;;;;;;;5.35;4.25;;;19.00;56.30;;;;;;5056081;28;20245;-80
2023/10/07 02:56:17;;;;;;;7.20;5.00;;;19.00;56.10;;;;;;5056316;28;20650;-80
2023/10/07 02:58:59;;;;;;;8.32;5.30;;;18.90;56.50;;;;;;5056191;28;20701;-80
2023/10/07 03:01:28;;;;;;;7.68;5.10;;;18.90;56.30;;;;;;5056205;28;20199;-80
2023/10/07 03:03:55;;;;;;;7.38;5.03;;;18.90;56.10;;;;;;5039364;28;20227;-80
2023/10/07 03:06:26;;;;;;;7.43;5.20;;;18.90;56.10;;;;;;5055996;28;20206;-80
2023/10/07 03:09:00;;;;;;;6.45;4.80;;;18.90;55.90;;;;;;5055778;28;20702;-80
2023/10/07 03:11:40;;;;;;;6.47;4.90;;;18.90;55.90;;;;;;5056017;28;20642;-80
2023/10/07 03:14:12;;;;;;;7.18;4.63;;;18.90;56.00;;;;;;5056354;28;20191;-80
2023/10/07 03:16:45;;;;;;;7.97;4.90;;;18.90;55.80;;;;;;5055824;28;20646;-80
2023/10/07 03:19:22;;;;;;;8.93;5.15;;;18.90;56.10;;;;;;5055781;28;20223;-80
2023/10/07 03:22:09;;;;;;;5.72;4.43;;;18.90;56.60;;;;;;5055696;28;20194;-80
2023/10/07 03:24:42;;;;;;;7.22;5.22;;;18.90;56.50;;;;;;5055963;28;20214;-80
2023/10/07 03:27:21;;;;;;;7.55;5.10;;;18.90;56.20;;;;;;5055821;28;20630;-80
2023/10/07 03:29:59;;;;;;;7.40;4.95;;;19.00;56.70;;;;;;5055893;28;20273;-80
2023/10/07 03:32:32;;;;;;;6.97;4.50;;;19.00;56.10;;;;;;5055568;28;20195;-79
2023/10/07 03:35:00;;;;;;;5.43;4.47;;;19.10;56.40;;;;;;5055422;28;20638;-79
2023/10/07 03:37:28;;;;;;;6.15;4.50;;;19.10;56.10;;;;;;5055718;28;20199;-79
2023/10/07 03:40:17;;;;;;;6.60;4.53;;;19.10;55.60;;;;;;5038157;28;20234;-79
2023/10/07 03:42:46;;;;;;;6.22;4.55;;;19.20;55.60;;;;;;5055696;28;20227;-79
2023/10/07 03:45:14;;;;;;;5.72;4.55;;;19.20;55.90;;;;;;5055605;28;20202;-79
2023/10/07 03:47:46;;;;;;;5.07;3.97;;;19.20;55.80;;;;;;5055440;28;20241;-79
2023/10/07 03:50:29;;;;;;;5.95;4.55;;;19.20;55.40;;;;;;5039365;28;20268;-79
2023/10/07 03:52:58;;;;;;;6.00;4.45;;;19.20;55.10;;;;;;5055361;28;20199;-79
2023/10/07 03:55:27;;;;;;;5.93;4.40;;;19.30;55.00;;;;;;5054888;28;20626;-79
2023/10/07 03:57:56;;;;;;;5.97;4.80;;;19.30;55.10;;;;;;5055307;28;20203;-79
2023/10/07 04:00:28;;;;;;;5.97;4.55;;;19.30;55.30;;;;;;5057271;28;20219;-79
2023/10/07 04:03:01;;;;;;;6.80;4.88;;;19.30;55.30;;;;;;5061065;28;20249;-79
2023/10/07 04:05:32;;;;;;;6.78;4.75;;;19.20;55.10;;;;;;5055604;28;20199;-79
2023/10/07 04:08:00;;;;;;;5.30;4.35;;;19.20;55.20;;;;;;5055257;28;20195;-79
2023/10/07 04:10:36;;;;;;;6.03;4.50;;;19.20;55.10;;;;;;5055850;28;20220;-80
2023/10/07 04:13:07;;;;;;;5.85;5.00;;;19.20;55.10;;;;;;5056593;28;20195;-80
2023/10/07 04:15:44;;;;;;;5.65;4.60;;;19.20;55.10;;;;;;5055410;28;20207;-80
2023/10/07 04:18:16;;;;;;;6.50;4.47;;;19.10;54.70;;;;;;5039903;28;20301;-80
2023/10/07 04:20:57;;;;;;;6.05;4.65;;;19.10;54.60;;;;;;5055762;28;20254;-80
2023/10/07 04:23:25;;;;;;;5.80;4.60;;;19.10;54.80;;;;;;5055469;28;20195;-80
2023/10/07 04:25:55;;;;;;;6.10;4.70;;;19.10;54.80;;;;;;5054614;28;20261;-80
2023/10/07 04:28:26;;;;;;;7.05;4.90;;;19.10;54.20;;;;;;5055258;28;20262;-79
2023/10/07 04:30:54;;;;;;;5.88;4.55;;;19.10;54.80;;;;;;5055538;28;20698;-79
2023/10/07 04:33:25;;;;;;;5.28;4.38;;;19.10;54.50;;;;;;5054618;28;20221;-79
2023/10/07 04:35:57;;;;;;;6.10;4.47;;;19.10;54.20;;;;;;5054709;28;20202;-79
2023/10/07 04:38:39;;;;;;;6.72;5.15;;;19.10;54.50;;;;;;5054563;28;20261;-79
2023/10/07 04:43:59;;;;;;;7.20;4.53;;;19.10;54.40;;;;;;5054729;28;20191;-79
2023/10/07 04:46:28;;;;;;;5.97;4.43;;;19.10;54.60;;;;;;5054634;28;20200;-79
2023/10/07 04:48:56;;;;;;;5.50;4.22;;;19.00;54.60;;;;;;5054582;28;20225;-79
2023/10/07 04:51:46;;;;;;;5.28;4.15;;;19.00;54.30;;;;;;5053198;28;20215;-79
2023/10/07 04:54:12;;;;;;;6.07;4.60;;;19.00;54.70;;;;;;5054128;28;20188;-79
2023/10/07 04:56:39;;;;;;;6.25;4.70;;;19.00;54.80;;;;;;5054047;28;20234;-79
2023/10/07 04:59:09;;;;;;;6.70;4.72;;;19.00;55.00;;;;;;5053925;28;20681;-79
2023/10/07 05:01:35;;;;;;;5.72;4.30;;;18.90;55.10;;;;;;5037896;28;20195;-79
2023/10/07 05:04:04;;;;;;;5.70;4.65;;;18.90;54.90;;;;;;5054746;28;20361;-79
2023/10/07 05:06:30;;;;;;;7.30;4.43;;;18.90;55.10;;;;;;5053807;28;20195;-79
2023/10/07 05:08:57;;;;;;;5.63;4.45;;;18.90;55.20;;;;;;5053569;28;20226;-79
2023/10/07 05:11:26;;;;;;;7.05;4.50;;;18.90;55.10;;;;;;5053657;28;20199;-79
2023/10/07 05:13:55;;;;;;;5.30;4.30;;;18.90;55.00;;;;;;5037746;28;20286;-79
2023/10/07 05:16:22;;;;;;;7.30;4.45;;;18.90;55.10;;;;;;5053501;28;20210;-79
2023/10/07 05:18:49;;;;;;;6.65;4.55;;;18.90;54.90;;;;;;5053288;28;20681;-79
2023/10/07 05:21:19;;;;;;;5.72;4.05;;;18.90;55.20;;;;;;5054193;28;20673;-79
2023/10/07 05:23:47;;;;;;;4.90;3.95;;;18.80;54.90;;;;;;5054633;28;20223;-79
2023/10/07 05:26:17;;;;;;;5.80;4.53;;;18.90;55.20;;;;;;5053078;28;20199;-79
2023/10/07 05:28:44;;;;;;;6.10;4.40;;;18.80;55.20;;;;;;5053863;28;20200;-79
2023/10/07 05:31:14;;;;;;;5.80;4.45;;;18.80;55.10;;;;;;5053567;28;20219;-80
2023/10/07 05:33:43;;;;;;;5.53;4.05;;;18.80;55.20;;;;;;5053266;28;20649;-80
2023/10/07 05:36:13;;;;;;;5.80;4.63;;;18.80;55.10;;;;;;5054483;28;20195;-80
2023/10/07 05:38:40;;;;;;;5.63;3.85;;;18.70;55.00;;;;;;5036614;28;20219;-80
2023/10/07 05:41:12;;;;;;;4.90;4.05;;;18.80;55.20;;;;;;5053499;28;20708;-80
2023/10/07 05:43:39;;;;;;;5.63;4.25;;;18.80;55.30;;;;;;5053739;28;20195;-80
2023/10/07 05:46:06;;;;;;;5.00;4.13;;;18.80;55.30;;;;;;5054041;28;20200;-80
2023/10/07 05:48:37;;;;;;;4.72;3.83;;;18.80;55.30;;;;;;5036574;28;20282;-80
2023/10/07 05:51:07;;;;;;;6.00;4.20;;;18.80;55.10;;;;;;5053600;28;20625;-80
2023/10/07 05:53:37;;;;;;;5.28;4.10;;;18.70;55.20;;;;;;5053169;28;20229;-80
2023/10/07 05:56:05;;;;;;;5.35;4.05;;;18.80;55.20;;;;;;5038337;28;20257;-80
2023/10/07 05:58:33;;;;;;;5.32;4.20;;;18.80;55.20;;;;;;5036267;28;20206;-80
2023/10/07 06:01:00;;;;;;;5.25;4.20;;;18.80;54.80;;;;;;5052330;28;20219;-79
2023/10/07 06:03:28;;;;;;;5.47;4.00;;;18.70;55.00;;;;;;5053071;28;20200;-80
2023/10/07 06:05:57;;;;;;;5.88;4.05;;;18.70;55.00;;;;;;5052954;28;20566;-80
2023/10/07 06:08:26;;;;;;;5.90;4.50;;;18.70;54.50;;;;;;5054314;28;20214;-80
2023/10/07 06:10:56;;;;;;;4.65;4.07;;;18.70;54.60;;;;;;5052786;28;20250;-80
2023/10/07 06:13:22;;;;;;;5.78;4.00;;;18.70;55.10;;;;;;5053741;28;20199;-80
2023/10/07 06:15:50;;;;;;;5.43;4.20;;;18.80;55.20;;;;;;5054321;28;20199;-80
2023/10/07 06:18:18;;;;;;;4.40;3.85;;;18.80;55.10;;;;;;5036621;28;20274;-80
2023/10/07 06:20:47;;;;;;;4.55;3.85;;;18.80;55.00;;;;;;5052723;28;20245;-80
2023/10/07 06:23:14;;;;;;;5.00;4.15;;;18.80;55.00;;;;;;5052595;28;20253;-80
2023/10/07 06:25:48;;;;;;;4.90;3.90;;;18.80;54.70;;;;;;5052435;28;20195;-80
2023/10/07 06:28:29;;;;;;;4.90;4.00;;;18.80;54.70;;;;;;5052476;28;20301;-80
2023/10/07 06:31:10;;;;;;;6.13;4.25;;;18.80;54.80;;;;;;5052320;28;20712;-80
2023/10/07 06:33:39;;;;;;;5.72;4.22;;;18.80;54.70;;;;;;5052437;28;20550;-80
2023/10/07 06:36:07;;;;;;;4.90;4.10;;;18.90;54.80;;;;;;5052398;28;20203;-80
2023/10/07 06:38:34;;;;;;;5.22;3.85;;;18.90;54.80;;;;;;5052216;28;20617;-80
2023/10/07 06:41:09;;;;;;;4.43;3.63;;;18.90;54.40;;;;;;5054018;28;20211;-80
2023/10/07 06:43:38;;;;;;;5.75;4.35;;;18.90;54.60;;;;;;5052437;28;20286;-80
2023/10/07 06:46:10;;;;;;;5.18;4.05;;;18.90;54.60;;;;;;5052783;28;20641;-80
2023/10/07 06:48:38;;;;;;;5.55;4.28;;;18.90;54.70;;;;;;5037538;28;20198;-80
2023/10/07 06:51:10;;;;;;;5.57;4.47;;;19.00;54.50;;;;;;5052648;28;20212;-80
2023/10/07 06:53:42;;;;;;;4.78;3.67;;;18.90;54.30;;;;;;5052761;28;20265;-80
2023/10/07 06:56:21;;;;;;;6.45;4.68;;;18.90;54.20;;;;;;5052502;28;20564;-80
2023/10/07 06:58:53;;;;;;;4.60;3.90;;;18.90;54.20;;;;;;5052419;28;20202;-80
2023/10/07 07:01:35;;;;;;;5.07;4.00;;;19.00;54.30;;;;;;5054011;28;20270;-80
2023/10/07 07:04:10;;;;;;;5.63;4.07;;;19.00;54.50;;;;;;5038444;28;20227;-80
2023/10/07 07:06:42;;;;;;;4.53;3.80;;;19.00;54.90;;;;;;5054185;28;20601;-79
2023/10/07 07:11:55;;;;;;;5.63;4.00;;;19.10;54.70;;;;;;5058143;28;20203;-80
2023/10/07 07:14:28;;;;;;;5.63;4.07;;;19.10;54.40;;;;;;5054571;28;20195;-80
2023/10/07 07:16:56;;;;;;;6.03;4.25;;;19.20;54.70;;;;;;5056461;28;20654;-79
2023/10/07 07:19:23;;;;;;;4.82;3.65;;;19.20;54.80;;;;;;5056342;28;20258;-78
2023/10/07 07:21:50;;;;;;;5.40;4.18;;;19.20;54.90;;;;;;5056448;28;20203;-78
2023/10/07 07:24:21;;;;;;;4.57;4.05;;;19.30;55.40;;;;;;5056412;28;20195;-78
2023/10/07 07:26:51;;;;;;;4.97;3.92;;;19.40;55.40;;;;;;5057673;28;20214;-78
2023/10/07 07:29:23;;;;;;;5.53;4.15;;;19.50;55.30;;;;;;5056181;28;20238;-78
2023/10/07 07:31:50;;;;;;;4.72;3.78;;;19.60;55.30;;;;;;5056104;28;20201;-78
2023/10/07 07:34:25;;;;;;;5.82;3.97;;;19.70;55.10;;;;;;5039619;28;20642;-78
2023/10/07 07:37:01;;;;;;;5.65;3.90;;;19.70;54.90;;;;;;5056394;28;20522;-78
2023/10/07 07:39:30;;;;;;;6.35;3.85;;;19.80;54.40;;;;;;5057149;28;20284;-78
2023/10/07 07:42:00;;;;;;;6.20;4.00;;;19.80;54.40;;;;;;5055722;28;20199;-78
2023/10/07 07:44:34;;;;;;;6.47;4.93;;;19.80;54.40;;;;;;5057085;28;20234;-78
2023/10/07 07:47:03;;;;;;;6.25;4.18;;;19.80;55.50;;;;;;5055688;28;20294;-78
2023/10/07 07:49:32;;;;;;;5.22;4.10;;;19.90;55.30;;;;;;5056784;28;20212;-78
2023/10/07 07:52:00;;;;;;;5.13;4.18;;;20.00;55.40;;;;;;5055567;28;20282;-78
2023/10/07 07:54:29;;;;;;;6.05;4.50;;;20.10;55.70;;;;;;5055394;28;20200;-78
2023/10/07 07:56:56;;;;;;;5.35;4.15;;;20.30;55.40;;;;;;5054970;28;20787;-78
2023/10/07 07:59:24;;;;;;;5.55;4.03;;;20.60;55.00;;;;;;5038451;28;20215;-78
2023/10/07 08:01:53;;;;;;;6.00;4.00;;;20.80;54.40;;;;;;5055337;28;20237;-78
2023/10/07 08:04:37;;;;;;;5.80;4.25;;;21.00;53.90;;;;;;5055325;28;20215;-78
2023/10/07 08:07:07;;;;;;;6.60;4.35;;;21.20;53.10;;;;;;5055725;28;20191;-78
2023/10/07 08:09:37;;;;;;;6.40;4.10;;;21.40;52.80;;;;;;5039533;28;20212;-78
2023/10/07 08:12:09;;;;;;;5.35;3.90;;;21.50;53.10;;;;;;5038989;28;20196;-78
2023/10/07 08:14:37;;;;;;;31.02;13.95;;;21.70;52.90;;;;;;5054753;28;20192;-78
2023/10/07 08:17:08;;;;;;;56.25;24.45;;;21.70;52.90;;;;;;5055047;28;20567;-79
2023/10/07 08:19:35;;;;;;;25.25;13.48;;;21.80;49.90;;;;;;5054388;28;20223;-78
2023/10/07 08:22:12;;;;;;;18.73;9.23;;;21.80;48.80;;;;;;5055463;28;20211;-78
2023/10/07 08:24:39;;;;;;;15.45;9.77;;;21.80;47.50;;;;;;5054457;28;20285;-78
2023/10/07 08:27:43;;;;;;;14.75;9.07;;;21.70;47.10;;;;;;5054494;28;20290;-78
2023/10/07 08:29:56;;;;;;;9.93;6.57;;;21.60;47.30;;;;;;5054644;28;20215;-78
2023/10/07 08:32:35;;;;;;;9.40;5.82;;;21.60;47.10;;;;;;5054340;28;20195;-78
2023/10/07 08:35:03;;;;;;;9.93;6.03;;;21.60;47.30;;;;;;5054366;28;20226;-78
2023/10/07 08:37:32;;;;;;;7.38;5.63;;;21.60;47.50;;;;;;5054634;28;20206;-78
2023/10/07 08:40:09;;;;;;;8.88;5.20;;;21.70;47.10;;;;;;5054054;28;20219;-78
2023/10/07 08:42:37;;;;;;;9.82;5.22;;;21.60;47.00;;;;;;5054407;28;20244;-78
2023/10/07 08:45:14;;;;;;;8.10;5.53;;;21.60;46.70;;;;;;5054705;28;20205;-78
2023/10/07 08:47:49;;;;;;;7.47;5.32;;;21.70;46.50;;;;;;5054363;28;20195;-78
2023/10/07 08:50:18;;;;;;;7.47;5.40;;;21.80;46.30;;;;;;5055674;28;20294;-78
2023/10/07 08:52:46;;;;;;;10.38;5.43;;;21.90;46.00;;;;;;5054130;28;20237;-78
2023/10/07 08:55:14;;;;;;;7.80;5.68;;;21.90;46.50;;;;;;5054366;28;20199;-78
2023/10/07 08:57:46;;;;;;;6.35;4.95;;;21.80;46.40;;;;;;5054044;28;20203;-78
2023/10/07 09:00:20;;;;;;;7.28;4.63;;;21.90;46.30;;;;;;5053663;28;20255;-78
2023/10/07 09:02:49;;;;;;;7.53;4.50;;;21.90;46.90;;;;;;5053704;28;20218;-78
2023/10/07 09:05:20;;;;;;;7.18;4.93;;;21.90;47.30;;;;;;5053685;28;20195;-78
2023/10/07 09:07:49;;;;;;;6.63;4.35;;;21.90;47.60;;;;;;5054773;28;20194;-78
2023/10/07 09:10:17;;;;;;;6.53;4.13;;;21.80;47.80;;;;;;5053344;28;20221;-78
2023/10/07 09:12:48;;;;;;;6.07;4.70;;;21.90;48.20;;;;;;5053565;28;20195;-78
2023/10/07 09:15:20;;;;;;;7.25;4.60;;;22.00;48.30;;;;;;5053505;28;20212;-78
2023/10/07 09:17:46;;;;;;;8.90;4.78;;;21.90;48.20;;;;;;5053480;28;20180;-78
2023/10/07 09:20:18;;;;;;;6.70;4.35;;;21.90;48.40;;;;;;5036715;28;20808;-79
2023/10/07 09:22:53;;;;;;;8.02;4.60;;;21.90;48.60;;;;;;5054018;28;20199;-78
2023/10/07 09:25:31;;;;;;;5.38;4.43;;;21.90;48.90;;;;;;5053617;28;20207;-78
2023/10/07 09:27:58;;;;;;;6.15;4.35;;;22.00;49.10;;;;;;5053166;28;20198;-78
2023/10/07 09:33:13;;;;;;;6.55;4.57;;;22.00;49.20;;;;;;5052916;28;20245;-78
2023/10/07 09:35:43;;;;;;;6.53;4.50;;;22.00;49.30;;;;;;5053666;28;20227;-78
2023/10/07 09:38:12;;;;;;;6.82;4.40;;;22.00;49.30;;;;;;5054114;28;20211;-77
2023/10/07 09:41:11;;;;;;;5.88;4.40;;;22.00;50.20;;;;;;5053175;28;20277;-77
2023/10/07 09:43:43;;;;;;;6.80;4.05;;;22.00;49.70;;;;;;5053301;28;20290;-78
2023/10/07 09:46:11;;;;;;;5.20;4.05;;;22.00;49.90;;;;;;5053409;28;20210;-78
2023/10/07 09:48:41;;;;;;;9.27;4.28;;;22.00;49.60;;;;;;5054143;28;20732;-77
2023/10/07 09:51:22;;;;;;;7.20;4.32;;;22.10;50.00;;;;;;5053127;28;20215;-77
2023/10/07 09:54:02;;;;;;;6.07;4.30;;;22.00;50.00;;;;;;5095353;22;20230;-82
2023/10/07 09:56:43;;;;;;;6.03;4.18;;;22.00;50.60;;;;;;5055495;28;20603;-81
2023/10/07 09:59:18;;;;;;;6.25;4.18;;;22.00;50.60;;;;;;5055796;28;20258;-81
2023/10/07 10:01:58;;;;;;;5.53;4.22;;;22.00;50.20;;;;;;5055511;28;20207;-81
2023/10/07 10:04:49;;;;;;;7.80;4.40;;;21.90;50.20;;;;;;5063075;28;20534;-81
2023/10/07 10:07:42;;;;;;;4.90;3.53;;;22.00;50.40;;;;;;5058453;28;20231;-82
2023/10/07 10:10:13;;;;;;;5.30;4.20;;;22.00;50.40;;;;;;5059670;28;20310;-82
2023/10/07 10:12:56;;;;;;;5.28;4.10;;;22.00;50.50;;;;;;5058524;28;20592;-81
2023/10/07 10:15:52;;;;;;;5.85;4.10;;;21.90;50.40;;;;;;5057772;28;20238;-81
2023/10/07 10:18:35;;;;;;;5.40;4.05;;;22.00;50.50;;;;;;5058604;28;20223;-80
2023/10/07 10:21:04;;;;;;;7.30;4.45;;;22.00;50.40;;;;;;5056431;28;20286;-80
2023/10/07 10:23:34;;;;;;;7.10;4.22;;;22.00;50.40;;;;;;5057170;28;20187;-80
2023/10/07 10:26:13;;;;;;;6.35;4.45;;;22.00;50.40;;;;;;5055942;28;20683;-80
2023/10/07 10:28:41;;;;;;;6.03;4.10;;;22.00;50.40;;;;;;5057963;28;20626;-80
2023/10/07 10:31:19;;;;;;;5.60;4.00;;;22.00;50.60;;;;;;5053629;28;20287;-80
2023/10/07 10:33:49;;;;;;;5.00;3.70;;;22.00;50.60;;;;;;5050083;28;20199;-81
2023/10/07 10:36:21;;;;;;;6.18;4.20;;;22.00;50.40;;;;;;5053892;28;20207;-81
2023/10/07 10:38:49;;;;;;;7.38;4.03;;;22.00;50.30;;;;;;5053547;28;20210;-81
2023/10/07 10:41:27;;;;;;;6.72;4.10;;;22.00;50.50;;;;;;5054617;28;20215;-79
2023/10/07 10:44:07;;;;;;;5.65;4.20;;;22.00;50.60;;;;;;5055237;28;20642;-82
2023/10/07 10:46:46;;;;;;;6.78;4.00;;;22.00;50.80;;;;;;5054990;28;20193;-82
2023/10/07 10:49:15;;;;;;;6.90;4.72;;;22.00;51.20;;;;;;5055836;28;20218;-82
2023/10/07 10:51:45;;;;;;;7.50;4.60;;;22.00;51.50;;;;;;5059675;28;20199;-82
2023/10/07 10:54:18;;;;;;;6.78;4.55;;;22.00;51.20;;;;;;5058917;28;20203;-82
2023/10/07 10:56:49;;;;;;;8.63;4.88;;;22.00;51.30;;;;;;5041339;28;20206;-82
2023/10/07 10:59:17;;;;;;;7.90;4.95;;;22.00;51.40;;;;;;5058223;28;20269;-82
2023/10/07 11:01:49;;;;;;;9.57;4.70;;;22.00;51.70;;;;;;5057688;28;20211;-82
2023/10/07 11:04:19;;;;;;;6.50;4.70;;;22.10;51.60;;;;;;5059321;28;20202;-82
2023/10/07 11:06:50;;;;;;;6.90;4.30;;;22.10;51.90;;;;;;5059108;28;20233;-82
2023/10/07 11:09:25;;;;;;;6.35;4.53;;;22.10;51.70;;;;;;5059541;28;20226;-83
2023/10/07 11:11:55;;;;;;;5.00;3.63;;;22.10;51.30;;;;;;5058305;28;20593;-83
2023/10/07 11:14:23;;;;;;;6.40;4.32;;;22.20;51.20;;;;;;5059088;28;20645;-83
2023/10/07 11:16:51;;;;;;;7.25;4.30;;;22.20;51.00;;;;;;5059662;28;20234;-83
2023/10/07 11:19:19;;;;;;;7.15;4.35;;;22.20;50.90;;;;;;5059335;28;20219;-83
2023/10/07 11:21:48;;;;;;;8.82;4.05;;;22.20;50.80;;;;;;5058173;28;20258;-83
2023/10/07 11:24:27;;;;;;;7.57;4.30;;;22.20;50.80;;;;;;5056781;28;20207;-82
2023/10/07 11:26:56;;;;;;;7.30;4.60;;;22.30;50.70;;;;;;5056696;28;20206;-82
2023/10/07 11:29:30;;;;;;;7.22;4.05;;;22.30;50.60;;;;;;5057406;28;20298;-83
2023/10/07 11:32:01;;;;;;;6.03;4.10;;;22.30;50.50;;;;;;5058141;28;20204;-83
2023/10/07 11:34:33;;;;;;;6.63;4.05;;;22.30;50.50;;;;;;5057483;28;20370;-83
2023/10/07 11:37:10;;;;;;;5.95;4.35;;;22.30;50.40;;;;;;5042055;28;20229;-83
2023/10/07 11:39:44;;;;;;;5.50;4.00;;;22.30;50.40;;;;;;5058017;28;20222;-83
2023/10/07 11:42:14;;;;;;;6.97;4.20;;;22.30;50.40;;;;;;5056847;28;20237;-83
2023/10/07 11:44:42;;;;;;;6.95;4.28;;;22.30;50.40;;;;;;5057182;28;20235;-83
2023/10/07 11:47:10;;;;;;;4.97;4.00;;;22.30;50.40;;;;;;5056852;28;20230;-83
2023/10/07 11:49:38;;;;;;;6.38;4.22;;;22.30;50.40;;;;;;5057491;28;20309;-83
2023/10/07 11:52:05;;;;;;;6.82;4.30;;;22.30;50.60;;;;;;5059335;28;20199;-83
2023/10/07 11:54:34;;;;;;;5.10;4.15;;;22.30;50.50;;;;;;5058332;28;20199;-83
2023/10/07 11:57:05;;;;;;;5.60;3.83;;;22.30;50.50;;;;;;5056939;28;20642;-83
2023/10/07 11:59:33;;;;;;;6.32;4.07;;;22.30;50.60;;;;;;5023678;28;20219;-83
2023/10/07 12:02:00;;;;;;;6.93;4.28;;;22.30;50.60;;;;;;5055475;28;20219;-83
2023/10/07 12:04:28;;;;;;;6.30;4.32;;;22.30;50.60;;;;;;5056407;28;20613;-83
2023/10/07 12:06:55;;;;;;;6.60;4.30;;;22.30;50.60;;;;;;5056180;28;20228;-83
2023/10/07 12:09:23;;;;;;;5.80;3.90;;;22.30;50.60;;;;;;5038686;28;20349;-83
2023/10/07 12:11:53;;;;;;;5.80;3.80;;;22.30;50.60;;;;;;5057438;28;20191;-83
2023/10/07 12:14:23;;;;;;;6.45;4.00;;;22.30;51.20;;;;;;5057952;28;20230;-83
2023/10/07 12:16:50;;;;;;;7.22;4.38;;;22.30;50.80;;;;;;5058113;28;20580;-83
2023/10/07 12:19:18;;;;;;;5.72;3.70;;;22.30;50.70;;;;;;5040092;28;20223;-83
2023/10/07 12:21:47;;;;;;;4.80;3.85;;;22.40;51.50;;;;;;5055598;28;20298;-83
2023/10/07 12:24:16;;;;;;;7.53;4.38;;;22.30;51.80;;;;;;5056886;28;20203;-83
2023/10/07 12:26:45;;;;;;;5.47;3.97;;;22.30;51.50;;;;;;5057127;28;20199;-83
2023/10/07 12:29:12;;;;;;;5.97;4.28;;;22.30;51.60;;;;;;5056602;28;20724;-83
2023/10/07 12:31:42;;;;;;;5.50;3.95;;;22.30;51.70;;;;;;5040201;28;20218;-83
2023/10/07 12:34:10;;;;;;;5.32;3.78;;;22.30;51.80;;;;;;5055658;28;20201;-83
2023/10/07 12:36:39;;;;;;;5.10;4.30;;;22.40;51.90;;;;;;5055928;28;20199;-83
2023/10/07 12:39:10;;;;;;;5.80;4.05;;;22.40;51.90;;;;;;5055665;28;20191;-83
2023/10/07 12:41:38;;;;;;;5.55;4.13;;;22.40;51.80;;;;;;5055751;28;20220;-83
2023/10/07 12:44:08;;;;;;;7.05;4.10;;;22.40;52.00;;;;;;5056102;28;20196;-83
2023/10/07 12:46:37;;;;;;;5.95;3.80;;;22.40;51.90;;;;;;5055677;28;20201;-83
2023/10/07 12:49:09;;;;;;;5.82;3.75;;;22.40;51.80;;;;;;5055381;28;20290;-83
2023/10/07 12:51:41;;;;;;;5.55;4.13;;;22.40;51.90;;;;;;5056066;28;20187;-83
2023/10/07 12:54:09;;;;;;;5.38;4.50;;;22.40;51.80;;;;;;5056113;28;20226;-83
2023/10/07 12:56:37;;;;;;;5.07;3.75;;;22.40;51.70;;;;;;5056392;28;20202;-83
2023/10/07 12:59:17;;;;;;;4.57;3.60;;;22.40;51.70;;;;;;5040376;28;20646;-83
2023/10/07 13:01:47;;;;;;;6.45;3.83;;;22.40;51.90;;;;;;5056002;28;20219;-83
2023/10/07 13:04:15;;;;;;;4.90;3.78;;;22.40;51.80;;;;;;5056391;28;20542;-83
2023/10/07 13:06:44;;;;;;;4.97;3.90;;;22.40;52.00;;;;;;5056667;28;20716;-82
2023/10/07 13:09:16;;;;;;;6.70;4.00;;;22.40;51.90;;;;;;5040221;28;20227;-82
2023/10/07 13:11:43;;;;;;;5.75;3.50;;;22.40;51.80;;;;;;5056602;28;20196;-82
2023/10/07 13:14:11;;;;;;;5.03;3.63;;;22.40;51.80;;;;;;5056114;28;20206;-82
2023/10/07 13:16:39;;;;;;;5.03;3.63;;;22.40;51.70;;;;;;5056788;28;20222;-83